createdAt,value
2018-01-19T00:01:04.528Z,22.62
2018-01-19T00:03:32.772Z,27.62
2018-01-19T00:06:00.336Z,28.62
2018-01-19T00:08:28.564Z,31.48
2018-01-19T00:10:56.152Z,28.20
2018-01-19T00:13:24.380Z,32.43
2018-01-19T00:15:51.951Z,29.87
2018-01-19T00:18:20.176Z,27.73
2018-01-19T00:20:47.751Z,27.15
2018-01-19T00:23:17.851Z,26.10
2018-01-19T00:25:46.107Z,30.48
2018-01-19T00:28:14.340Z,24.77
2018-01-19T00:30:41.811Z,27.40
2018-01-19T00:33:10.054Z,25.50
2018-01-19T00:35:37.528Z,27.37
2018-01-19T00:38:05.104Z,24.25
2018-01-19T00:40:32.564Z,23.90
2018-01-19T00:43:00.033Z,30.30
2018-01-19T00:45:27.584Z,25.23
2018-01-19T00:47:55.817Z,31.40
2018-01-19T00:50:23.296Z,29.20
2018-01-19T00:52:51.555Z,35.67
2018-01-19T00:55:19.906Z,27.97
2018-01-19T00:57:48.175Z,32.40
2018-01-19T01:00:16.399Z,29.55
2018-01-19T01:02:43.880Z,30.10
2018-01-19T01:05:12.112Z,24.10
2018-01-19T01:07:39.605Z,27.50
2018-01-19T01:10:07.115Z,29.77
2018-01-19T01:12:35.377Z,29.17
2018-01-19T01:15:03.620Z,32.13
2018-01-19T01:17:31.176Z,31.37
2018-01-19T01:19:59.436Z,35.93
2018-01-19T01:22:27.695Z,31.93
2018-01-19T01:24:55.938Z,25.75
2018-01-19T01:27:23.396Z,26.25
2018-01-19T01:29:51.640Z,27.67
2018-01-19T01:32:19.112Z,29.37
2018-01-19T01:34:47.340Z,24.00
2018-01-19T01:37:14.908Z,23.83
2018-01-19T01:39:43.144Z,27.27
2018-01-19T01:42:10.608Z,28.87
2018-01-19T01:44:38.872Z,29.52
2018-01-19T01:47:06.332Z,26.00
2018-01-19T01:49:33.849Z,27.45
2018-01-19T01:52:02.079Z,25.73
2018-01-19T01:54:29.559Z,27.15
2018-01-19T01:56:57.820Z,29.03
2018-01-19T01:59:26.076Z,23.90
2018-01-19T02:01:54.312Z,25.35
2018-01-19T02:04:21.776Z,30.30
2018-01-19T02:06:50.027Z,27.80
2018-01-19T02:09:17.577Z,29.17
2018-01-19T02:11:45.128Z,30.92
2018-01-19T02:14:13.480Z,27.57
2018-01-19T02:16:41.743Z,30.80
2018-01-19T02:19:09.975Z,31.50
2018-01-19T02:21:37.547Z,31.30
2018-01-19T02:24:05.823Z,29.52
2018-01-19T02:26:33.352Z,28.85
2018-01-19T02:29:01.604Z,31.30
2018-01-19T02:31:29.835Z,30.37
2018-01-19T02:33:57.302Z,32.17
2018-01-19T02:36:24.791Z,31.52
2018-01-19T02:38:52.312Z,28.87
2018-01-19T02:41:19.785Z,25.98
2018-01-19T02:43:47.276Z,32.85
2018-01-19T02:46:15.521Z,35.40
2018-01-19T02:48:43.089Z,33.00
2018-01-19T02:51:11.470Z,32.47
2018-01-19T02:53:38.992Z,29.55
2018-01-19T02:56:07.262Z,33.72
2018-01-19T02:58:35.526Z,33.17
2018-01-19T03:01:03.005Z,31.67
2018-01-19T03:03:30.492Z,30.20
2018-01-19T03:05:58.768Z,29.42
2018-01-19T03:08:26.240Z,29.63
2018-01-19T03:10:53.720Z,33.17
2018-01-19T03:13:21.183Z,34.95
2018-01-19T03:15:48.728Z,37.10
2018-01-19T03:18:16.988Z,36.67
2018-01-19T03:20:45.248Z,33.05
2018-01-19T03:23:13.484Z,30.48
2018-01-19T03:25:41.053Z,35.92
2018-01-19T03:28:09.311Z,39.00
2018-01-19T03:30:37.615Z,38.30
2018-01-19T03:33:05.115Z,28.65
2018-01-19T03:35:33.376Z,32.38
2018-01-19T03:38:01.744Z,34.25
2018-01-19T03:40:29.975Z,23.65
2018-01-19T03:42:57.457Z,17.90
2018-01-19T03:45:24.933Z,14.23
2018-01-19T03:47:52.392Z,13.30
2018-01-19T03:50:19.855Z,14.10
2018-01-19T03:52:47.335Z,13.60
2018-01-19T03:55:14.824Z,15.43
2018-01-19T03:57:42.316Z,13.95
2018-01-19T04:00:09.837Z,13.15
2018-01-19T04:02:38.096Z,12.07
2018-01-19T04:05:06.340Z,12.75
2018-01-19T04:07:33.824Z,10.75
2018-01-19T04:10:01.286Z,11.02
2018-01-19T04:12:28.781Z,10.52
2018-01-19T04:14:57.040Z,10.70
2018-01-19T04:17:24.587Z,10.27
2018-01-19T04:19:52.843Z,11.03
2018-01-19T04:22:21.088Z,11.70
2018-01-19T04:24:48.563Z,12.30
2018-01-19T04:27:16.794Z,13.40
2018-01-19T04:29:44.348Z,13.30
2018-01-19T04:32:12.588Z,14.40
2018-01-19T04:34:40.060Z,14.63
2018-01-19T04:37:08.295Z,14.18
2018-01-19T04:39:35.778Z,16.00
2018-01-19T04:42:03.268Z,14.87
2018-01-19T04:44:30.840Z,15.50
2018-01-19T04:46:59.271Z,16.17
2018-01-19T04:49:26.845Z,16.17
2018-01-19T04:51:55.094Z,16.00
2018-01-19T04:54:22.651Z,16.35
2018-01-19T04:56:50.248Z,16.20
2018-01-19T04:59:18.481Z,18.40
2018-01-19T05:01:46.053Z,17.58
2018-01-19T05:04:14.316Z,19.42
2018-01-19T05:06:41.779Z,17.00
2018-01-19T05:09:09.793Z,18.33
2018-01-19T05:11:38.040Z,18.15
2018-01-19T05:14:05.611Z,18.67
2018-01-19T05:16:33.868Z,19.83
2018-01-19T05:19:02.128Z,20.42
2018-01-19T05:21:30.380Z,20.60
2018-01-19T05:23:58.614Z,21.70
2018-01-19T05:26:26.081Z,21.97
2018-01-19T05:28:54.316Z,24.37
2018-01-19T05:31:21.796Z,24.20
2018-01-19T05:33:50.032Z,23.60
2018-01-19T05:36:17.507Z,24.87
2018-01-19T05:38:44.983Z,25.20
2018-01-19T05:41:12.520Z,24.58
2018-01-19T05:43:40.165Z,28.02
2018-01-19T05:46:07.669Z,29.37
2018-01-19T05:48:35.900Z,28.90
2018-01-19T05:51:03.464Z,28.60
2018-01-19T05:53:31.711Z,24.30
2018-01-19T05:55:59.180Z,24.47
2018-01-19T05:58:26.649Z,26.90
2018-01-19T06:00:54.144Z,26.60
2018-01-19T06:03:21.604Z,26.73
2018-01-19T06:05:49.068Z,27.37
2018-01-19T06:08:16.540Z,30.27
2018-01-19T06:10:44.007Z,29.33
2018-01-19T06:13:11.493Z,32.70
2018-01-19T06:15:38.968Z,31.00
2018-01-19T06:18:06.444Z,37.67
2018-01-19T06:20:33.977Z,35.70
2018-01-19T06:23:02.237Z,36.65
2018-01-19T06:25:29.769Z,35.80
2018-01-19T06:27:58.015Z,31.27
2018-01-19T06:30:25.565Z,33.25
2018-01-19T06:32:53.810Z,33.38
2018-01-19T06:35:21.276Z,37.67
2018-01-19T06:37:49.536Z,38.17
2018-01-19T06:40:17.776Z,38.08
2018-01-19T06:42:45.335Z,33.15
2018-01-19T06:45:13.643Z,36.85
2018-01-19T06:47:41.120Z,37.42
2018-01-19T06:50:08.688Z,35.50
2018-01-19T06:52:36.940Z,40.20
2018-01-19T06:55:05.204Z,34.35
2018-01-19T06:57:33.457Z,37.90
2018-01-19T07:00:01.684Z,35.40
2018-01-19T07:02:29.154Z,35.87
2018-01-19T07:04:56.715Z,37.28
2018-01-19T07:07:24.940Z,32.72
2018-01-19T07:09:52.420Z,34.78
2018-01-19T07:12:20.664Z,33.15
2018-01-19T07:14:48.978Z,32.17
2018-01-19T07:17:16.453Z,33.33
2018-01-19T07:19:43.920Z,36.88
2018-01-19T07:22:11.422Z,34.08
2018-01-19T07:24:39.652Z,39.90
2018-01-19T07:27:07.228Z,35.63
2018-01-19T07:29:35.808Z,34.65
2018-01-19T07:32:03.293Z,38.65
2018-01-19T07:34:30.830Z,37.85
2018-01-19T07:36:58.292Z,35.50
2018-01-19T07:39:25.763Z,35.45
2018-01-19T07:41:53.988Z,33.75
2018-01-19T07:44:21.572Z,34.35
2018-01-19T07:46:49.809Z,35.10
2018-01-19T07:49:17.288Z,34.22
2018-01-19T07:51:44.812Z,35.72
2018-01-19T07:54:13.044Z,27.58
2018-01-19T07:56:40.620Z,26.47
2018-01-19T07:59:08.855Z,25.10
2018-01-19T08:01:36.415Z,24.02
2018-01-19T08:04:04.692Z,25.52
2018-01-19T08:06:32.168Z,24.98
2018-01-19T08:08:59.655Z,26.10
2018-01-19T08:11:27.220Z,29.10
2018-01-19T08:13:55.517Z,26.83
2018-01-19T08:16:22.995Z,29.40
2018-01-19T08:18:50.452Z,26.73
2018-01-19T08:21:18.036Z,31.37
2018-01-19T08:23:46.392Z,26.60
2018-01-19T08:26:14.644Z,27.23
2018-01-19T08:28:42.888Z,32.42
2018-01-19T08:31:10.370Z,31.17
2018-01-19T08:33:37.868Z,31.12
2018-01-19T08:36:06.115Z,34.35
2018-01-19T08:38:33.575Z,37.72
2018-01-19T08:41:01.040Z,30.25
2018-01-19T08:43:29.284Z,35.50
2018-01-19T08:45:56.836Z,31.62
2018-01-19T08:48:25.096Z,36.25
2018-01-19T08:50:53.364Z,34.33
2018-01-19T08:53:21.666Z,34.17
2018-01-19T08:55:49.163Z,27.45
2018-01-19T08:58:17.424Z,25.15
2018-01-19T09:00:45.695Z,27.92
2018-01-19T09:03:13.323Z,31.40
2018-01-19T09:05:41.592Z,26.90
2018-01-19T09:08:09.832Z,28.12
2018-01-19T09:10:37.301Z,26.87
2018-01-19T09:13:05.552Z,29.02
2018-01-19T09:15:33.812Z,27.17
2018-01-19T09:18:02.080Z,29.77
2018-01-19T09:20:29.652Z,31.87
2018-01-19T09:22:57.909Z,28.33
2018-01-19T09:25:26.168Z,29.48
2018-01-19T09:27:54.408Z,27.42
2018-01-19T09:30:21.909Z,29.92
2018-01-19T09:32:49.420Z,27.90
2018-01-19T09:35:17.684Z,32.97
2018-01-19T09:37:45.338Z,25.00
2018-01-19T09:40:12.640Z,26.52
2018-01-19T09:42:40.112Z,29.77
2018-01-19T09:45:07.596Z,27.95
2018-01-19T09:47:35.076Z,28.42
2018-01-19T09:50:03.347Z,27.95
2018-01-19T09:52:30.821Z,24.27
2018-01-19T09:54:59.048Z,25.75
2018-01-19T09:57:26.619Z,26.40
2018-01-19T09:59:54.889Z,25.90
2018-01-19T10:02:23.124Z,27.27
2018-01-19T10:04:50.693Z,24.55
2018-01-19T10:07:19.013Z,25.90
2018-01-19T10:09:46.596Z,28.85
2018-01-19T10:12:14.848Z,26.40
2018-01-19T10:14:43.108Z,25.35
2018-01-19T10:17:11.476Z,23.25
2018-01-19T10:19:39.717Z,23.98
2018-01-19T10:22:07.191Z,23.40
2018-01-19T10:24:34.727Z,23.67
2018-01-19T10:27:02.990Z,25.80
2018-01-19T10:29:31.246Z,23.38
2018-01-19T10:31:59.505Z,23.30
2018-01-19T10:34:27.740Z,22.10
2018-01-19T10:36:55.247Z,23.87
2018-01-19T10:39:22.712Z,24.52
2018-01-19T10:41:50.176Z,25.95
2018-01-19T10:44:17.700Z,27.33
2018-01-19T10:46:45.159Z,24.45
2018-01-19T10:49:12.714Z,22.87
2018-01-19T10:51:40.183Z,18.47
2018-01-19T10:54:07.748Z,21.55
2018-01-19T10:56:36.009Z,21.70
2018-01-19T10:59:04.360Z,19.50
2018-01-19T11:01:32.604Z,21.62
2018-01-19T11:04:00.084Z,17.80
2018-01-19T11:06:27.609Z,18.23
2018-01-19T11:08:55.914Z,20.65
2018-01-19T11:11:23.414Z,25.67
2018-01-19T11:13:51.651Z,20.15
2018-01-19T11:16:19.124Z,19.00
2018-01-19T11:18:46.597Z,16.15
2018-01-19T11:21:14.076Z,17.08
2018-01-19T11:23:41.556Z,17.87
2018-01-19T11:26:09.032Z,16.92
2018-01-19T11:28:36.628Z,19.17
2018-01-19T11:31:04.897Z,17.37
2018-01-19T11:33:33.156Z,19.45
2018-01-19T11:36:01.416Z,18.02
2018-01-19T11:38:29.665Z,19.98
2018-01-19T11:40:57.928Z,19.10
2018-01-19T11:43:26.194Z,18.80
2018-01-19T11:45:54.428Z,16.40
2018-01-19T11:48:21.996Z,18.30
2018-01-19T11:50:49.493Z,19.37
2018-01-19T11:53:17.040Z,20.02
2018-01-19T11:55:45.292Z,21.80
2018-01-19T11:58:13.560Z,18.10
2018-01-19T12:00:41.800Z,17.42
2018-01-19T12:03:09.284Z,16.98
2018-01-19T12:05:36.762Z,16.62
2018-01-19T12:08:04.248Z,20.00
2018-01-19T12:10:32.496Z,14.10
2018-01-19T12:12:59.983Z,17.87
2018-01-19T12:15:27.448Z,17.15
2018-01-19T12:17:54.928Z,16.17
2018-01-19T12:20:23.164Z,20.80
2018-01-19T12:22:50.636Z,19.90
2018-01-19T12:25:18.905Z,19.75
2018-01-19T12:27:46.432Z,14.38
2018-01-19T12:30:14.804Z,15.77
2018-01-19T12:32:43.056Z,15.68
2018-01-19T12:35:11.288Z,18.02
2018-01-19T12:37:38.757Z,17.83
2018-01-19T12:40:07.003Z,17.58
2018-01-19T12:42:34.496Z,12.90
2018-01-19T12:45:01.964Z,22.87
2018-01-19T12:47:29.448Z,16.80
2018-01-19T12:49:57.688Z,19.85
2018-01-19T12:52:25.253Z,18.83
2018-01-19T12:54:52.720Z,17.20
2018-01-19T12:57:20.192Z,16.17
2018-01-19T12:59:47.765Z,16.98
2018-01-19T13:02:15.240Z,17.30
2018-01-19T13:04:42.715Z,16.02
2018-01-19T13:07:10.208Z,20.67
2018-01-19T13:09:37.672Z,19.35
2018-01-19T13:12:05.144Z,14.75
2018-01-19T13:14:32.620Z,19.23
2018-01-19T13:17:00.189Z,17.20
2018-01-19T13:19:27.680Z,19.83
2018-01-19T13:21:55.944Z,13.75
2018-01-19T13:24:24.181Z,16.08
2018-01-19T13:26:52.434Z,16.37
2018-01-19T13:29:19.913Z,18.65
2018-01-19T13:31:48.168Z,13.88
2018-01-19T13:34:16.413Z,15.85
2018-01-19T13:36:43.968Z,18.45
2018-01-19T13:39:12.328Z,17.73
2018-01-19T13:41:40.597Z,17.40
2018-01-19T13:44:08.076Z,16.30
2018-01-19T13:46:35.581Z,15.68
2018-01-19T13:49:03.828Z,14.87
2018-01-19T13:51:32.063Z,18.42
2018-01-19T13:53:59.532Z,18.30
2018-01-19T13:56:27.783Z,15.70
2018-01-19T13:58:55.260Z,17.75
2018-01-19T14:01:22.739Z,16.85
2018-01-19T14:03:50.222Z,16.85
2018-01-19T14:06:18.468Z,18.90
2018-01-19T14:08:45.940Z,19.90
2018-01-19T14:11:13.483Z,19.30
2018-01-19T14:13:40.964Z,15.95
2018-01-19T14:16:08.436Z,16.08
2018-01-19T14:18:35.904Z,14.27
2018-01-19T14:21:03.437Z,13.75
2018-01-19T14:23:31.692Z,15.77
2018-01-19T14:25:59.960Z,13.30
2018-01-19T14:28:28.212Z,17.58
2018-01-19T14:30:56.440Z,10.35
2018-01-19T14:33:23.912Z,15.05
2018-01-19T14:35:52.179Z,15.40
2018-01-19T14:38:20.416Z,14.75
2018-01-19T14:40:47.983Z,16.15
2018-01-19T14:43:16.243Z,12.43
2018-01-19T14:45:44.504Z,12.57
2018-01-19T14:48:12.764Z,11.85
2018-01-19T14:50:41.024Z,13.80
2018-01-19T14:53:08.504Z,11.50
2018-01-19T14:55:36.773Z,12.18
2018-01-19T14:58:05.032Z,13.10
2018-01-19T15:00:33.259Z,12.37
2018-01-19T15:03:00.786Z,11.95
2018-01-19T15:05:28.280Z,10.25
2018-01-19T15:07:57.302Z,13.90
2018-01-19T15:10:24.764Z,11.25
2018-01-19T15:12:52.236Z,9.55
2018-01-19T15:15:20.476Z,11.95
2018-01-19T15:17:47.936Z,14.53
2018-01-19T15:20:16.172Z,11.27
2018-01-19T15:22:43.740Z,13.43
2018-01-19T15:25:12.004Z,11.70
2018-01-19T15:27:40.236Z,10.45
2018-01-19T15:30:07.808Z,13.25
2018-01-19T15:32:36.072Z,13.62
2018-01-19T15:35:04.304Z,11.30
2018-01-19T15:37:31.777Z,14.38
2018-01-19T15:40:00.012Z,9.93
2018-01-19T15:42:27.486Z,13.80
2018-01-19T15:44:54.964Z,12.82
2018-01-19T15:47:22.448Z,13.00
2018-01-19T15:49:50.693Z,11.55
2018-01-19T15:52:18.208Z,13.73
2018-01-19T15:54:45.681Z,8.50
2018-01-19T15:57:13.185Z,13.38
2018-01-19T15:59:41.450Z,14.50
2018-01-19T16:05:01.085Z,11.55
2018-01-19T16:07:28.569Z,10.43
2018-01-19T16:09:56.059Z,12.73
2018-01-19T16:12:23.567Z,12.95
2018-01-19T16:14:51.073Z,15.05
2018-01-19T16:17:19.336Z,12.15
2018-01-19T16:19:47.606Z,11.88
2018-01-19T16:22:15.143Z,11.35
2018-01-19T16:24:43.412Z,10.43
2018-01-19T16:27:10.948Z,15.07
2018-01-19T16:29:39.204Z,15.60
2018-01-19T16:32:07.440Z,10.40
2018-01-19T16:34:35.008Z,7.20
2018-01-19T16:37:02.512Z,8.60
2018-01-19T16:42:21.639Z,6.72
2018-01-19T16:44:49.863Z,5.30
2018-01-19T16:47:17.368Z,4.50
2018-01-19T16:49:44.834Z,5.05
2018-01-19T16:52:12.311Z,4.43
2018-01-19T16:54:39.890Z,6.43
2018-01-19T16:57:07.461Z,4.75
2018-01-19T16:59:34.932Z,5.03
2018-01-19T17:02:02.733Z,7.07
2018-01-19T17:04:30.252Z,5.75
2018-01-19T17:06:58.511Z,6.43
2018-01-19T17:09:26.774Z,6.37
2018-01-19T17:11:55.010Z,7.28
2018-01-19T17:14:22.676Z,5.78
2018-01-19T17:16:50.932Z,7.75
2018-01-19T17:19:19.193Z,7.87
2018-01-19T17:21:47.416Z,9.82
2018-01-19T17:24:14.992Z,9.10
2018-01-19T17:26:43.216Z,9.37
2018-01-19T17:29:10.672Z,7.57
2018-01-19T17:31:38.901Z,9.32
2018-01-19T17:34:06.372Z,10.75
2018-01-19T17:36:33.844Z,12.30
2018-01-19T17:39:01.416Z,8.87
2018-01-19T17:41:29.676Z,10.95
2018-01-19T17:43:57.892Z,9.18
2018-01-19T17:46:25.488Z,9.07
2018-01-19T17:48:53.744Z,8.65
2018-01-19T17:51:21.972Z,9.02
2018-01-19T17:53:49.438Z,6.60
2018-01-19T17:56:16.892Z,7.03
2018-01-19T17:58:45.120Z,7.53
2018-01-19T18:01:12.580Z,7.20
2018-01-19T18:03:40.827Z,7.78
2018-01-19T18:06:08.280Z,7.60
2018-01-19T18:08:36.544Z,8.40
2018-01-19T18:11:04.800Z,7.37
2018-01-19T18:13:33.025Z,7.82
2018-01-19T18:16:00.496Z,9.20
2018-01-19T18:18:28.046Z,9.80
2018-01-19T18:20:56.301Z,8.50
2018-01-19T18:23:24.672Z,11.33
2018-01-19T18:25:52.932Z,12.60
2018-01-19T18:28:21.160Z,12.23
2018-01-19T18:30:48.640Z,10.77
2018-01-19T18:33:16.104Z,13.00
2018-01-19T18:35:44.343Z,11.65
2018-01-19T18:38:11.913Z,12.77
2018-01-19T18:40:40.143Z,13.75
2018-01-19T18:43:07.665Z,14.95
2018-01-19T18:45:35.145Z,14.32
2018-01-19T18:48:02.612Z,13.40
2018-01-19T18:50:30.076Z,15.25
2018-01-19T18:52:57.548Z,15.75
2018-01-19T18:55:25.026Z,13.70
2018-01-19T18:57:53.293Z,15.35
2018-01-19T19:00:21.512Z,13.32
2018-01-19T19:02:48.983Z,14.95
2018-01-19T19:05:17.231Z,14.68
2018-01-19T19:07:44.795Z,17.52
2018-01-19T19:10:13.040Z,12.60
2018-01-19T19:12:40.599Z,13.27
2018-01-19T19:15:08.824Z,13.93
2018-01-19T19:17:36.436Z,14.17
2018-01-19T19:20:03.953Z,15.57
2018-01-19T19:22:32.188Z,17.42
2018-01-19T19:24:59.675Z,17.62
2018-01-19T19:27:27.141Z,15.25
2018-01-19T19:29:54.628Z,18.30
2018-01-19T19:32:22.865Z,16.23
2018-01-19T19:34:50.348Z,17.20
2018-01-19T19:37:17.880Z,14.95
2018-01-19T19:39:46.158Z,12.77
2018-01-19T19:42:14.504Z,16.35
2018-01-19T19:44:42.817Z,12.65
2018-01-19T19:47:10.244Z,13.25
2018-01-19T19:49:37.723Z,13.68
2018-01-19T19:52:05.188Z,13.75
2018-01-19T19:54:33.419Z,12.85
2018-01-19T19:57:00.920Z,12.82
2018-01-19T19:59:28.391Z,10.30
2018-01-19T20:01:55.980Z,11.63
2018-01-19T20:04:24.216Z,10.50
2018-01-19T20:06:51.784Z,10.50
2018-01-19T20:09:20.053Z,12.37
2018-01-19T20:11:47.592Z,10.13
2018-01-19T20:14:15.048Z,7.50
2018-01-19T20:16:42.582Z,10.60
2018-01-19T20:19:10.815Z,12.60
2018-01-19T20:21:38.384Z,12.77
2018-01-19T20:24:06.643Z,10.98
2018-01-19T20:26:34.871Z,13.05
2018-01-19T20:29:02.356Z,13.13
2018-01-19T20:31:29.828Z,14.82
2018-01-19T20:33:57.314Z,17.85
2018-01-19T20:36:24.782Z,15.68
2018-01-19T20:38:52.248Z,17.80
2018-01-19T20:41:19.832Z,19.10
2018-01-19T20:43:48.078Z,21.40
2018-01-19T20:46:15.544Z,23.35
2018-01-19T20:48:43.020Z,22.77
2018-01-19T20:51:10.496Z,23.77
2018-01-19T20:53:37.987Z,23.70
2018-01-19T20:56:05.503Z,24.70
2018-01-19T20:58:33.732Z,30.88
2018-01-19T21:01:02.013Z,30.92
2018-01-19T21:03:31.088Z,30.58
2018-01-19T21:05:59.328Z,29.90
2018-01-19T21:08:26.996Z,33.85
2018-01-19T21:10:55.268Z,33.25
2018-01-19T21:13:23.508Z,34.30
2018-01-19T21:15:50.980Z,29.52
2018-01-19T21:18:18.444Z,31.67
2018-01-19T21:20:45.952Z,31.48
2018-01-19T21:23:14.216Z,32.80
2018-01-19T21:25:46.831Z,35.95
2018-01-19T21:28:14.301Z,37.10
2018-01-19T21:30:42.534Z,34.20
2018-01-19T21:33:10.755Z,31.80
2018-01-19T21:35:38.247Z,36.88
2018-01-19T21:38:06.511Z,35.10
2018-01-19T21:40:34.867Z,35.42
2018-01-19T21:43:03.097Z,31.00
2018-01-19T21:45:30.664Z,33.78
2018-01-19T21:47:58.946Z,35.07
2018-01-19T21:50:26.476Z,36.17
2018-01-19T21:52:54.732Z,36.40
2018-01-19T21:55:22.998Z,37.00
2018-01-19T21:57:51.256Z,33.17
2018-01-19T22:00:19.495Z,39.70
2018-01-19T22:02:47.001Z,33.28
2018-01-19T22:05:14.467Z,34.40
2018-01-19T22:07:42.051Z,37.03
2018-01-19T22:13:01.009Z,42.80
2018-01-19T22:18:19.349Z,38.35
2018-01-19T22:20:46.892Z,34.67
2018-01-19T22:23:14.356Z,38.72
2018-01-19T22:25:41.825Z,37.03
2018-01-19T22:28:09.296Z,35.25
2018-01-19T22:30:37.544Z,37.88
2018-01-19T22:33:05.803Z,38.65
2018-01-19T22:35:34.033Z,35.47
2018-01-19T22:38:01.719Z,39.30
2018-01-19T22:42:35.616Z,37.13
2018-01-19T22:45:04.072Z,34.78
2018-01-19T22:47:32.328Z,37.42
2018-01-19T22:50:00.573Z,31.77
2018-01-19T22:52:28.036Z,37.15
2018-01-19T22:54:56.291Z,35.80
2018-01-19T22:57:24.524Z,33.58
2018-01-19T22:59:51.985Z,31.48
2018-01-19T23:02:19.551Z,31.62
2018-01-19T23:04:47.825Z,32.30
2018-01-19T23:07:15.339Z,31.77
2018-01-19T23:09:42.801Z,29.83
2018-01-19T23:12:10.533Z,32.92
2018-01-19T23:14:38.764Z,30.48
2018-01-19T23:17:06.382Z,32.95
2018-01-19T23:19:33.846Z,30.05
2018-01-19T23:22:02.127Z,29.40
2018-01-19T23:24:29.683Z,29.08
2018-01-19T23:26:57.224Z,33.63
2018-01-19T23:29:24.819Z,28.80
2018-01-19T23:31:52.292Z,31.25
2018-01-19T23:34:19.852Z,30.35
2018-01-19T23:36:47.311Z,35.58
2018-01-19T23:39:15.544Z,30.52
2018-01-19T23:41:43.097Z,28.60
2018-01-19T23:44:11.320Z,33.58
2018-01-19T23:46:38.776Z,29.67
2018-01-19T23:49:06.328Z,33.35
2018-01-19T23:51:33.836Z,33.03
2018-01-19T23:54:01.338Z,29.27
2018-01-19T23:56:29.565Z,34.28
2018-01-19T23:58:57.033Z,33.10
